Time;durP1;ratioP1;P1;durP2;ratioP2;P2;SDS_P1;SDS_P2;PMS_P1;PMS_P2;Temp;Humidity;BMP_temperature;BMP_pressure;BME280_temperature;BME280_humidity;BME280_pressure;Samples;Min_cycle;Max_cycle;Signal;HPM_P1;HPM_P2
2023/10/11 00:00:37;;;;;;;13.32;6.00;;;17.40;99.90;;;;;;5072219;28;20024;-37
2023/10/11 00:05:53;;;;;;;16.77;6.82;;;17.50;99.90;;;;;;5074370;28;20041;-37
2023/10/11 00:08:25;;;;;;;22.88;8.50;;;17.40;99.90;;;;;;5076055;28;20036;-37
2023/10/11 00:10:59;;;;;;;14.40;6.95;;;17.40;99.90;;;;;;5076293;28;20025;-37
2023/10/11 00:13:36;;;;;;;17.95;7.30;;;17.40;99.90;;;;;;5076396;28;20032;-37
2023/10/11 00:16:07;;;;;;;17.10;7.68;;;17.40;99.90;;;;;;5057947;28;20029;-37
2023/10/11 00:18:41;;;;;;;15.32;7.10;;;17.40;99.90;;;;;;5075620;28;20021;-38
2023/10/11 00:21:15;;;;;;;12.48;6.68;;;17.40;99.90;;;;;;5075938;28;20024;-38
2023/10/11 00:23:43;;;;;;;16.55;7.65;;;17.40;99.90;;;;;;5075849;28;20039;-37
2023/10/11 00:26:09;;;;;;;23.20;8.75;;;17.40;99.90;;;;;;5069809;28;20028;-39
2023/10/11 00:28:37;;;;;;;18.95;7.82;;;17.40;99.90;;;;;;5058285;28;20108;-38
2023/10/11 00:31:06;;;;;;;17.05;7.78;;;17.40;99.90;;;;;;5073601;28;20526;-45
2023/10/11 00:33:33;;;;;;;22.88;8.25;;;17.40;99.90;;;;;;5075784;28;20034;-57
2023/10/11 00:36:01;;;;;;;18.70;7.47;;;17.40;99.90;;;;;;5057831;28;20056;-38
2023/10/11 00:38:27;;;;;;;14.05;7.70;;;17.40;99.90;;;;;;5075849;28;20029;-38
2023/10/11 00:41:06;;;;;;;22.92;8.48;;;17.30;99.90;;;;;;5074927;28;20024;-37
2023/10/11 00:43:37;;;;;;;16.23;7.43;;;17.40;99.90;;;;;;5071550;28;20028;-37
2023/10/11 00:46:08;;;;;;;23.77;7.82;;;17.30;99.90;;;;;;5074874;28;20020;-36
2023/10/11 00:48:51;;;;;;;17.55;7.72;;;17.40;99.90;;;;;;5075027;28;20031;-38
2023/10/11 00:51:25;;;;;;;21.08;8.07;;;17.40;99.90;;;;;;5075242;28;20032;-37
2023/10/11 00:53:51;;;;;;;19.38;8.73;;;17.40;99.90;;;;;;5074891;28;20063;-37
2023/10/11 00:56:18;;;;;;;19.80;7.97;;;17.40;99.90;;;;;;5074709;28;20485;-39
2023/10/11 00:58:44;;;;;;;18.10;7.88;;;17.40;99.90;;;;;;5074968;28;20376;-38
2023/10/11 01:01:11;;;;;;;16.80;7.85;;;17.40;99.90;;;;;;5074856;28;20095;-38
2023/10/11 01:03:37;;;;;;;18.73;7.72;;;17.40;99.90;;;;;;5074440;28;20428;-38
2023/10/11 01:06:04;;;;;;;20.70;8.32;;;17.40;99.90;;;;;;5058874;28;20028;-38
2023/10/11 01:08:39;;;;;;;26.27;7.57;;;17.40;99.90;;;;;;5056439;28;20028;-37
2023/10/11 01:11:11;;;;;;;16.63;7.43;;;17.40;99.90;;;;;;5074895;28;20290;-37
2023/10/11 01:13:40;;;;;;;13.52;7.20;;;17.40;99.90;;;;;;5074505;28;20059;-39
2023/10/11 01:16:14;;;;;;;16.75;7.30;;;17.40;99.90;;;;;;5056565;28;20066;-37
2023/10/11 01:18:41;;;;;;;17.83;7.28;;;17.40;99.90;;;;;;5074375;28;20025;-37
2023/10/11 01:21:07;;;;;;;17.55;7.65;;;17.40;99.90;;;;;;5074706;28;20477;-37
2023/10/11 01:23:34;;;;;;;18.23;7.03;;;17.40;99.90;;;;;;5075110;28;20024;-39
2023/10/11 01:26:07;;;;;;;14.73;6.83;;;17.40;99.90;;;;;;5074211;28;20035;-38
2023/10/11 01:28:38;;;;;;;16.98;8.23;;;17.40;99.90;;;;;;5040601;28;20040;-40
2023/10/11 01:31:11;;;;;;;14.00;6.78;;;17.30;99.90;;;;;;5054611;28;20036;-38
2023/10/11 01:33:45;;;;;;;18.08;7.32;;;17.30;99.90;;;;;;5074482;28;20044;-38
2023/10/11 01:36:21;;;;;;;15.82;7.18;;;17.40;99.90;;;;;;5073835;28;20032;-38
2023/10/11 01:38:47;;;;;;;26.50;8.30;;;17.30;99.90;;;;;;5074798;28;20028;-38
2023/10/11 01:41:26;;;;;;;16.33;7.53;;;17.30;99.90;;;;;;5074192;28;20060;-40
2023/10/11 01:43:52;;;;;;;18.63;7.38;;;17.30;99.90;;;;;;5074408;28;20162;-37
2023/10/11 01:46:27;;;;;;;16.65;7.75;;;17.20;99.90;;;;;;5072926;28;20378;-37
2023/10/11 01:48:54;;;;;;;19.55;7.82;;;17.20;99.90;;;;;;5074475;28;20111;-39
2023/10/11 01:51:26;;;;;;;;;;;17.20;99.90;;;;;;5074030;28;20043;-39
2023/10/11 01:54:01;;;;;;;16.73;8.50;;;17.20;99.90;;;;;;5056384;28;20395;-51
2023/10/11 01:56:27;;;;;;;27.58;9.30;;;17.20;99.90;;;;;;5062019;28;20367;-49
2023/10/11 01:58:56;;;;;;;15.40;7.13;;;17.10;99.90;;;;;;5055855;28;20017;-53
2023/10/11 02:01:26;;;;;;;15.32;7.80;;;17.10;99.90;;;;;;5073690;28;20035;-54
2023/10/11 02:03:55;;;;;;;21.17;8.30;;;17.10;99.90;;;;;;5074441;28;20055;-50
2023/10/11 02:06:21;;;;;;;19.20;7.75;;;17.10;99.90;;;;;;5074061;28;20035;-49
2023/10/11 02:08:47;;;;;;;22.00;9.02;;;17.00;99.90;;;;;;5074452;28;20103;-50
2023/10/11 02:11:14;;;;;;;17.90;7.55;;;17.10;99.90;;;;;;5070001;28;20115;-51
2023/10/11 02:13:44;;;;;;;18.60;8.13;;;17.10;99.90;;;;;;5073286;28;20481;-47
2023/10/11 02:16:14;;;;;;;21.88;8.90;;;17.00;99.90;;;;;;5073257;28;20019;-51
2023/10/11 02:18:43;;;;;;;29.98;8.77;;;17.00;99.90;;;;;;5072927;28;20424;-67
2023/10/11 02:21:09;;;;;;;14.93;7.35;;;17.00;99.90;;;;;;5059212;28;20029;-49
2023/10/11 02:23:39;;;;;;;15.40;7.50;;;17.00;99.90;;;;;;5072840;28;20028;-51
2023/10/11 02:26:14;;;;;;;19.90;9.10;;;17.00;99.90;;;;;;5055038;28;20081;-50
2023/10/11 02:28:40;;;;;;;20.90;8.55;;;17.00;99.90;;;;;;5073072;28;20029;-46
2023/10/11 02:31:07;;;;;;;18.58;8.75;;;16.90;99.90;;;;;;5073021;28;20028;-52
2023/10/11 02:33:33;;;;;;;18.17;8.60;;;17.00;99.90;;;;;;5072537;28;20535;-51
2023/10/11 02:36:08;;;;;;;16.48;8.70;;;17.00;99.90;;;;;;5072509;28;20116;-52
2023/10/11 02:38:47;;;;;;;18.67;8.40;;;16.90;99.90;;;;;;5073391;28;20039;-52
2023/10/11 02:41:14;;;;;;;17.90;8.60;;;16.90;99.90;;;;;;5071742;28;20016;-52
2023/10/11 02:43:49;;;;;;;17.93;7.90;;;17.00;99.90;;;;;;5054197;28;20021;-51
2023/10/11 02:46:22;;;;;;;24.75;8.27;;;16.90;99.90;;;;;;5067558;28;20032;-51
2023/10/11 02:48:49;;;;;;;20.77;8.98;;;16.90;99.90;;;;;;5055407;28;20123;-50
2023/10/11 02:51:17;;;;;;;20.17;8.60;;;16.90;99.90;;;;;;5072940;28;20056;-51
2023/10/11 02:53:43;;;;;;;23.25;8.60;;;16.90;99.90;;;;;;5073182;28;20480;-51
2023/10/11 02:56:11;;;;;;;19.83;7.50;;;16.90;99.90;;;;;;5073205;28;20020;-49
2023/10/11 02:58:39;;;;;;;19.63;8.68;;;16.90;99.90;;;;;;5072211;28;20016;-52
2023/10/11 03:01:14;;;;;;;18.50;8.02;;;16.90;99.90;;;;;;5071918;28;20074;-49
2023/10/11 03:03:43;;;;;;;25.08;8.98;;;16.80;99.90;;;;;;5072848;28;20028;-51
2023/10/11 03:06:10;;;;;;;20.17;7.60;;;16.80;99.90;;;;;;5072538;28;20032;-51
2023/10/11 03:08:37;;;;;;;17.35;7.93;;;16.80;99.90;;;;;;5072788;28;20029;-60
2023/10/11 03:11:15;;;;;;;23.05;7.80;;;16.80;99.90;;;;;;5072597;28;20039;-49
2023/10/11 03:13:41;;;;;;;22.10;7.35;;;16.80;99.90;;;;;;5072327;28;20086;-49
2023/10/11 03:16:13;;;;;;;17.60;7.25;;;16.70;99.90;;;;;;5072393;28;20021;-46
2023/10/11 03:18:39;;;;;;;15.88;7.25;;;16.70;99.90;;;;;;5072629;28;20448;-52
2023/10/11 03:21:16;;;;;;;16.17;6.90;;;16.70;99.90;;;;;;5072432;28;20028;-49
2023/10/11 03:23:43;;;;;;;15.23;7.40;;;16.70;99.90;;;;;;5072898;28;20052;-51
2023/10/11 03:28:58;;;;;;;14.13;6.68;;;16.70;99.90;;;;;;5072864;28;20123;-51
2023/10/11 03:31:28;;;;;;;12.35;6.88;;;16.60;99.90;;;;;;5072269;28;20028;-50
2023/10/11 03:33:55;;;;;;;13.95;6.88;;;16.60;99.90;;;;;;5071659;28;20033;-53
2023/10/11 03:36:28;;;;;;;11.57;6.63;;;16.60;99.90;;;;;;5072350;28;20040;-50
2023/10/11 03:38:54;;;;;;;15.48;7.00;;;16.60;99.90;;;;;;5072394;28;20058;-52
2023/10/11 03:41:29;;;;;;;11.65;6.90;;;16.60;99.90;;;;;;5071700;28;20529;-52
2023/10/11 03:44:00;;;;;;;13.95;6.70;;;16.70;99.90;;;;;;5054068;28;20028;-51
2023/10/11 03:46:34;;;;;;;16.17;6.55;;;16.60;99.90;;;;;;5072263;28;20477;-48
2023/10/11 03:51:43;;;;;;;27.17;6.88;;;16.60;99.90;;;;;;5071759;28;20028;-52
2023/10/11 03:54:24;;;;;;;21.80;7.63;;;16.60;99.90;;;;;;5072294;28;20102;-51
2023/10/11 03:56:54;;;;;;;14.98;6.90;;;16.70;99.90;;;;;;5072018;28;20016;-50
2023/10/11 03:59:26;;;;;;;15.70;6.75;;;16.60;99.90;;;;;;5069121;28;20067;-53
2023/10/11 04:01:59;;;;;;;16.13;6.93;;;16.70;99.90;;;;;;5072086;28;20039;-51
2023/10/11 04:04:24;;;;;;;17.05;8.02;;;16.70;99.90;;;;;;5071630;28;20119;-52
2023/10/11 04:07:00;;;;;;;19.17;7.20;;;16.60;99.90;;;;;;5072241;28;20067;-48
2023/10/11 04:09:37;;;;;;;13.15;6.95;;;16.60;99.90;;;;;;5059759;28;20024;-51
2023/10/11 04:12:04;;;;;;;12.38;6.93;;;16.70;99.90;;;;;;5072260;28;20032;-51
2023/10/11 04:14:39;;;;;;;13.80;7.90;;;16.60;99.90;;;;;;5072101;28;20024;-52
2023/10/11 04:19:52;;;;;;;20.85;7.32;;;16.60;99.90;;;;;;5059035;28;20029;-49
2023/10/11 04:22:23;;;;;;;12.93;6.22;;;16.60;99.90;;;;;;5064265;28;20504;-48
2023/10/11 04:24:55;;;;;;;16.13;7.43;;;16.60;99.90;;;;;;5067983;28;20481;-52
2023/10/11 04:29:51;;;;;;;20.10;7.50;;;16.70;99.90;;;;;;5071165;28;20032;-52
2023/10/11 04:35:10;;;;;;;21.65;7.88;;;16.70;99.90;;;;;;5071783;28;20047;-52
2023/10/11 04:37:44;;;;;;;16.67;7.53;;;16.60;99.90;;;;;;5055553;28;20071;-48
2023/10/11 04:40:23;;;;;;;14.23;6.13;;;16.60;99.90;;;;;;5071979;28;20078;-47
2023/10/11 04:43:04;;;;;;;15.27;7.32;;;16.60;99.90;;;;;;5071705;28;20504;-51
2023/10/11 04:45:44;;;;;;;14.38;7.82;;;16.60;99.90;;;;;;5071625;28;20025;-51
2023/10/11 04:48:15;;;;;;;21.13;8.32;;;16.60;99.90;;;;;;5056314;28;20039;-48
2023/10/11 04:50:44;;;;;;;23.50;8.75;;;16.60;99.90;;;;;;5071407;28;20137;-51
2023/10/11 04:53:17;;;;;;;19.17;7.65;;;16.60;99.90;;;;;;5073626;28;20090;-52
2023/10/11 04:55:46;;;;;;;21.48;7.70;;;16.70;99.90;;;;;;5056891;28;20031;-48
2023/10/11 04:58:21;;;;;;;15.10;8.27;;;16.70;99.90;;;;;;5075416;28;20047;-50
2023/10/11 05:00:48;;;;;;;16.15;8.13;;;16.60;99.90;;;;;;5075354;28;20044;-50
2023/10/11 05:03:17;;;;;;;15.27;8.05;;;16.60;99.90;;;;;;5074857;28;20021;-51
2023/10/11 05:05:58;;;;;;;16.95;8.20;;;16.70;99.90;;;;;;5074562;28;20032;-51
2023/10/11 05:08:51;;;;;;;18.90;8.77;;;16.70;99.90;;;;;;5075104;28;20044;-52
2023/10/11 05:11:25;;;;;;;23.90;9.10;;;16.60;99.90;;;;;;5074320;28;20047;-51
2023/10/11 05:13:59;;;;;;;18.90;8.85;;;16.60;99.90;;;;;;5072983;28;20146;-50
2023/10/11 05:19:12;;;;;;;20.05;8.90;;;16.60;99.90;;;;;;5073354;28;20105;-52
2023/10/11 05:21:38;;;;;;;20.05;8.95;;;16.70;99.90;;;;;;5074666;28;20120;-53
2023/10/11 05:24:14;;;;;;;19.45;8.68;;;16.60;99.90;;;;;;5074404;28;20027;-51
2023/10/11 05:26:48;;;;;;;26.95;10.63;;;16.70;99.90;;;;;;5068524;28;20032;-49
2023/10/11 05:29:24;;;;;;;20.60;8.65;;;16.70;99.90;;;;;;5074856;28;20089;-51
2023/10/11 05:32:33;;;;;;;19.05;9.93;;;16.70;99.90;;;;;;5074582;28;20032;-49
2023/10/11 05:34:50;;;;;;;27.75;8.82;;;16.70;99.90;;;;;;5061493;28;20493;-50
2023/10/11 05:51:07;;;;;;;15.85;8.70;;;16.70;99.90;;;;;;5074655;28;20393;-52
2023/10/11 05:56:23;;;;;;;27.65;9.77;;;16.70;99.90;;;;;;5073756;28;20031;-51
2023/10/11 05:58:55;;;;;;;15.10;9.27;;;16.70;99.90;;;;;;5073426;28;20035;-51
2023/10/11 06:01:22;;;;;;;24.92;9.23;;;16.70;99.90;;;;;;5074246;28;20091;-50
2023/10/11 06:03:52;;;;;;;25.77;10.43;;;16.70;99.90;;;;;;5055083;28;20093;-53
2023/10/11 06:06:27;;;;;;;21.15;9.93;;;16.70;99.90;;;;;;5073835;28;20086;-50
2023/10/11 06:08:54;;;;;;;25.02;9.98;;;16.70;99.90;;;;;;5073871;28;20473;-49
2023/10/11 06:11:23;;;;;;;26.30;10.55;;;16.80;99.90;;;;;;5055925;28;20500;-53
2023/10/11 06:13:52;;;;;;;24.02;9.85;;;16.70;99.90;;;;;;5073620;28;20488;-52
2023/10/11 06:16:19;;;;;;;32.65;10.98;;;16.70;99.90;;;;;;5073904;28;20086;-50
2023/10/11 06:18:57;;;;;;;17.80;9.75;;;16.70;99.90;;;;;;5073574;28;20086;-52
2023/10/11 06:21:33;;;;;;;21.90;9.80;;;16.70;99.90;;;;;;5055537;28;20431;-52
2023/10/11 06:24:05;;;;;;;31.27;10.35;;;16.80;99.90;;;;;;5073701;28;20063;-51
2023/10/11 06:29:07;;;;;;;20.05;9.77;;;16.80;99.90;;;;;;5057704;28;20054;-51
2023/10/11 06:31:39;;;;;;;25.58;9.55;;;16.90;99.90;;;;;;5073646;28;20477;-52
2023/10/11 06:36:49;;;;;;;24.05;9.13;;;16.90;99.90;;;;;;5068311;28;20038;-52
2023/10/11 06:42:21;;;;;;;25.33;8.60;;;16.90;99.90;;;;;;5073176;28;20029;-47
2023/10/11 06:44:57;;;;;;;20.17;9.93;;;17.00;99.90;;;;;;5060715;28;20032;-51
2023/10/11 06:47:25;;;;;;;23.30;9.27;;;17.00;99.90;;;;;;5054824;28;20477;-47
2023/10/11 06:49:54;;;;;;;;;;;17.00;99.90;;;;;;5055322;28;20485;-52
2023/10/11 06:52:33;;;;;;;28.27;8.55;;;17.00;99.90;;;;;;5072972;28;19983;-52
2023/10/11 06:55:15;;;;;;;20.08;8.40;;;17.10;99.90;;;;;;5072991;28;20040;-52
2023/10/11 06:57:54;;;;;;;21.67;9.00;;;17.10;99.90;;;;;;5073014;28;20039;-52
2023/10/11 07:00:22;;;;;;;26.88;8.88;;;17.10;99.90;;;;;;5072786;28;20024;-51
2023/10/11 07:02:52;;;;;;;19.40;8.52;;;17.10;99.90;;;;;;5072375;28;20165;-52
2023/10/11 07:05:20;;;;;;;24.67;9.82;;;17.10;99.90;;;;;;5072928;28;20024;-52
2023/10/11 07:07:49;;;;;;;23.42;9.27;;;17.10;99.90;;;;;;5073066;28;20027;-53
2023/10/11 07:10:35;;;;;;;20.75;9.10;;;17.10;99.90;;;;;;5073168;28;20020;-51
2023/10/11 07:13:05;;;;;;;24.45;9.43;;;17.20;99.90;;;;;;5053850;28;20017;-47
2023/10/11 07:15:51;;;;;;;16.98;9.38;;;17.20;99.90;;;;;;5072197;28;20346;-52
2023/10/11 07:18:28;;;;;;;23.50;9.45;;;17.20;99.90;;;;;;5069482;28;20025;-51
2023/10/11 07:20:58;;;;;;;20.23;8.30;;;17.30;99.90;;;;;;5072260;28;20009;-51
2023/10/11 07:23:35;;;;;;;27.25;9.93;;;17.30;99.90;;;;;;5072488;28;20024;-51
2023/10/11 07:28:52;;;;;;;24.95;9.23;;;17.40;99.90;;;;;;5072846;28;20512;-39
2023/10/11 07:31:32;;;;;;;23.05;8.70;;;17.40;99.90;;;;;;5072116;28;20020;-38
2023/10/11 07:34:16;;;;;;;26.55;9.73;;;17.40;99.90;;;;;;5071860;28;20048;-39
2023/10/11 07:36:44;;;;;;;20.00;9.90;;;17.40;99.90;;;;;;5054334;28;20098;-38
2023/10/11 07:39:19;;;;;;;26.98;8.82;;;17.40;99.90;;;;;;5062511;28;20087;-38
2023/10/11 07:41:48;;;;;;;22.92;9.30;;;17.40;99.90;;;;;;5054426;28;20075;-38
2023/10/11 07:44:14;;;;;;;18.10;8.50;;;17.40;99.90;;;;;;5054006;28;20376;-38
2023/10/11 07:46:43;;;;;;;24.80;9.05;;;17.40;99.90;;;;;;5072383;28;20039;-40
2023/10/11 07:49:14;;;;;;;24.77;9.77;;;17.40;99.90;;;;;;5053544;28;20035;-38
2023/10/11 07:51:40;;;;;;;25.42;8.73;;;17.40;99.90;;;;;;5072091;28;20451;-39
2023/10/11 07:54:06;;;;;;;17.60;9.13;;;17.40;99.90;;;;;;5072220;28;20032;-38
2023/10/11 07:56:36;;;;;;;27.02;9.32;;;17.40;99.90;;;;;;5054227;28;20054;-43
2023/10/11 07:59:07;;;;;;;18.83;8.93;;;17.50;99.90;;;;;;5072507;28;20099;-39
2023/10/11 08:01:42;;;;;;;23.77;9.23;;;17.50;99.90;;;;;;5072101;28;20013;-40
2023/10/11 08:04:21;;;;;;;31.52;11.23;;;17.60;99.90;;;;;;5054830;28;20032;-39
2023/10/11 08:06:51;;;;;;;27.90;10.10;;;17.50;99.90;;;;;;5066368;28;20066;-39
2023/10/11 08:09:19;;;;;;;24.67;10.93;;;17.60;99.90;;;;;;5072308;28;20059;-40
2023/10/11 08:11:59;;;;;;;19.23;9.25;;;17.60;99.90;;;;;;5072309;28;20496;-45
2023/10/11 08:14:32;;;;;;;21.25;10.25;;;17.60;99.90;;;;;;5066655;28;20029;-38
2023/10/11 08:16:59;;;;;;;32.00;9.60;;;17.60;99.90;;;;;;5070165;28;20048;-38
2023/10/11 08:19:25;;;;;;;21.03;7.20;;;17.60;99.90;;;;;;5071621;28;20032;-44
2023/10/11 08:21:57;;;;;;;23.25;10.60;;;17.60;99.90;;;;;;5053642;28;20528;-39
2023/10/11 08:24:27;;;;;;;24.13;11.10;;;17.70;99.90;;;;;;5070062;28;20025;-38
2023/10/11 08:27:06;;;;;;;22.65;8.98;;;17.60;99.90;;;;;;5073112;28;20107;-39
2023/10/11 08:29:33;;;;;;;24.45;8.90;;;17.70;99.90;;;;;;5072940;28;20063;-39
2023/10/11 08:32:00;;;;;;;25.77;10.57;;;17.70;99.90;;;;;;5057077;28;20477;-38
2023/10/11 08:34:27;;;;;;;23.70;9.35;;;17.70;99.90;;;;;;5075613;28;20048;-38
2023/10/11 08:36:56;;;;;;;24.92;8.93;;;17.70;99.90;;;;;;5075169;28;20484;-39
2023/10/11 08:39:44;;;;;;;22.42;9.60;;;17.70;99.90;;;;;;5075496;28;20027;-43
2023/10/11 08:42:16;;;;;;;26.85;10.50;;;17.80;99.90;;;;;;5075888;28;20420;-39
2023/10/11 08:44:46;;;;;;;30.88;10.63;;;17.70;99.90;;;;;;5057520;28;20446;-38
2023/10/11 08:47:19;;;;;;;31.70;10.07;;;17.70;99.90;;;;;;5076078;28;20095;-39
2023/10/11 08:49:51;;;;;;;23.67;9.88;;;17.70;99.90;;;;;;5075067;28;20028;-39
2023/10/11 08:52:25;;;;;;;23.90;9.95;;;17.70;99.90;;;;;;5073894;28;20108;-39
2023/10/11 08:54:51;;;;;;;19.25;9.13;;;17.70;99.90;;;;;;5073969;28;20028;-39
2023/10/11 08:57:25;;;;;;;31.52;10.73;;;17.70;99.90;;;;;;5075088;28;20489;-44
2023/10/11 08:59:56;;;;;;;26.33;10.60;;;17.70;99.90;;;;;;5075891;28;20063;-59
2023/10/11 09:02:33;;;;;;;38.22;11.02;;;17.70;99.90;;;;;;5075363;28;20023;-39
2023/10/11 09:05:02;;;;;;;24.67;10.35;;;17.70;99.90;;;;;;5075883;28;20118;-61
2023/10/11 09:07:48;;;;;;;36.13;11.10;;;17.70;99.90;;;;;;5075431;28;20480;-40
2023/10/11 09:10:25;;;;;;;25.77;10.27;;;17.70;99.90;;;;;;5057614;28;20473;-45
2023/10/11 09:12:56;;;;;;;38.17;12.07;;;17.80;99.90;;;;;;5075287;28;20027;-53
2023/10/11 09:15:23;;;;;;;40.28;11.57;;;17.80;99.90;;;;;;5075627;28;20495;-51
2023/10/11 09:17:50;;;;;;;20.20;10.52;;;17.80;99.90;;;;;;5074966;28;20024;-39
2023/10/11 09:20:23;;;;;;;32.05;10.10;;;17.80;99.90;;;;;;5075199;28;20028;-39
2023/10/11 09:22:53;;;;;;;23.02;9.93;;;17.80;99.90;;;;;;5074584;28;20036;-39
2023/10/11 09:25:23;;;;;;;33.75;10.32;;;17.80;99.90;;;;;;5074254;28;20033;-39
2023/10/11 09:27:50;;;;;;;29.90;11.55;;;17.80;99.90;;;;;;5075035;28;20024;-39
2023/10/11 09:30:20;;;;;;;25.45;12.25;;;17.90;99.90;;;;;;5074984;28;20028;-52
2023/10/11 09:32:53;;;;;;;25.38;11.25;;;17.90;99.90;;;;;;5074847;28;20017;-53
2023/10/11 09:35:28;;;;;;;29.20;10.45;;;18.00;99.90;;;;;;5056719;28;20148;-52
2023/10/11 09:37:59;;;;;;;30.75;10.75;;;18.00;99.90;;;;;;5074363;28;20063;-53
2023/10/11 09:40:36;;;;;;;38.85;13.38;;;18.00;99.90;;;;;;5074959;28;20436;-53
2023/10/11 09:43:02;;;;;;;30.27;11.52;;;18.00;99.90;;;;;;5074880;28;20024;-52
2023/10/11 09:45:44;;;;;;;31.55;10.05;;;18.00;99.90;;;;;;5074679;28;20025;-53
2023/10/11 09:48:19;;;;;;;33.45;11.85;;;18.00;99.90;;;;;;5074624;28;20078;-53
2023/10/11 09:50:44;;;;;;;25.10;10.57;;;18.00;99.90;;;;;;5073644;28;20020;-41
2023/10/11 09:53:13;;;;;;;21.90;10.27;;;18.00;99.90;;;;;;5072021;28;20435;-44
2023/10/11 09:56:17;;;;;;;28.27;10.88;;;18.00;99.90;;;;;;5072993;28;20020;-39
2023/10/11 09:58:55;;;;;;;28.05;10.10;;;18.10;99.90;;;;;;5058900;28;20040;-40
2023/10/11 10:01:32;;;;;;;25.25;10.00;;;18.10;99.90;;;;;;5074294;28;20035;-40
2023/10/11 10:04:05;;;;;;;21.50;10.27;;;18.10;99.90;;;;;;5073134;28;20288;-38
2023/10/11 10:06:31;;;;;;;25.98;9.93;;;18.20;99.90;;;;;;5055671;28;20039;-39
2023/10/11 10:09:24;;;;;;;26.70;11.10;;;18.20;99.90;;;;;;5070250;28;20111;-39
2023/10/11 10:12:09;;;;;;;31.05;10.45;;;18.20;99.90;;;;;;5071977;28;20036;-48
2023/10/11 10:14:41;;;;;;;23.50;9.70;;;18.40;99.90;;;;;;5074102;28;20044;-39
2023/10/11 10:17:10;;;;;;;22.35;9.65;;;18.40;99.90;;;;;;5074013;28;20028;-39
2023/10/11 10:19:39;;;;;;;27.45;9.90;;;18.40;99.90;;;;;;5073850;28;20024;-41
2023/10/11 10:22:14;;;;;;;34.30;9.90;;;18.50;99.90;;;;;;5055778;28;20031;-47
2023/10/11 10:24:41;;;;;;;31.40;9.80;;;18.60;99.90;;;;;;5073516;28;20032;-40
2023/10/11 10:27:33;;;;;;;32.60;9.13;;;18.60;99.90;;;;;;5073280;28;20025;-41
2023/10/11 10:30:00;;;;;;;28.10;9.57;;;18.70;99.90;;;;;;5047645;28;20071;-40
2023/10/11 10:32:27;;;;;;;27.58;9.45;;;18.80;99.90;;;;;;5072903;28;20028;-38
2023/10/11 10:35:20;;;;;;;23.88;9.75;;;18.90;99.90;;;;;;5072632;28;20031;-42
2023/10/11 10:37:56;;;;;;;26.10;10.05;;;19.00;99.90;;;;;;5071749;28;20493;-38
2023/10/11 10:40:26;;;;;;;25.17;9.50;;;19.20;99.90;;;;;;5070130;28;20485;-39
2023/10/11 10:43:07;;;;;;;23.90;8.30;;;19.20;99.90;;;;;;5055640;28;20056;-37
2023/10/11 10:45:36;;;;;;;25.55;8.32;;;19.40;99.90;;;;;;5072616;28;20028;-38
2023/10/11 10:48:14;;;;;;;25.20;8.77;;;19.50;99.90;;;;;;5071646;28;20017;-39
2023/10/11 10:50:54;;;;;;;27.48;9.20;;;19.70;99.90;;;;;;5068396;28;20028;-37
2023/10/11 10:53:24;;;;;;;14.63;8.13;;;19.80;99.90;;;;;;5072144;28;20497;-39
2023/10/11 10:55:50;;;;;;;21.42;7.50;;;20.00;99.90;;;;;;5072270;28;20016;-41
2023/10/11 11:01:04;;;;;;;17.05;6.93;;;20.20;99.90;;;;;;5071872;28;20044;-38
2023/10/11 11:03:32;;;;;;;15.13;5.78;;;20.20;99.90;;;;;;5073054;28;20044;-37
2023/10/11 11:06:01;;;;;;;14.30;6.13;;;20.20;99.90;;;;;;5073100;28;20031;-39
2023/10/11 11:08:32;;;;;;;13.18;5.22;;;20.30;99.90;;;;;;5072157;28;20423;-39
2023/10/11 11:11:25;;;;;;;11.70;5.07;;;20.30;99.90;;;;;;5062300;28;20078;-38
2023/10/11 11:13:52;;;;;;;13.60;5.43;;;20.30;99.90;;;;;;5054185;28;20032;-39
2023/10/11 11:16:26;;;;;;;12.60;4.32;;;20.30;99.90;;;;;;5069322;28;20036;-38
2023/10/11 11:18:52;;;;;;;11.32;4.05;;;20.30;99.90;;;;;;5072499;28;20021;-42
2023/10/11 11:21:25;;;;;;;8.15;3.67;;;20.40;99.90;;;;;;5071968;28;20491;-39
2023/10/11 11:23:51;;;;;;;8.35;3.55;;;20.40;99.90;;;;;;5054526;28;20032;-36
2023/10/11 11:26:22;;;;;;;8.00;3.42;;;20.40;99.90;;;;;;5072227;28;20036;-38
2023/10/11 11:29:07;;;;;;;8.77;3.30;;;20.40;99.90;;;;;;5072401;28;20024;-41
2023/10/11 11:31:51;;;;;;;9.15;3.22;;;20.40;99.90;;;;;;5072829;28;20028;-39
2023/10/11 11:34:26;;;;;;;10.75;3.08;;;20.50;99.90;;;;;;5072429;28;20103;-39
2023/10/11 11:36:59;;;;;;;11.13;3.00;;;20.60;99.90;;;;;;5071956;28;20118;-37
2023/10/11 11:39:36;;;;;;;6.05;2.25;;;20.70;99.90;;;;;;5072593;28;20351;-36
2023/10/11 11:42:24;;;;;;;19.85;3.90;;;20.80;99.90;;;;;;5072067;28;20028;-38
2023/10/11 11:44:50;;;;;;;6.82;2.63;;;20.90;99.90;;;;;;5061246;28;20023;-38
2023/10/11 11:47:22;;;;;;;11.13;2.78;;;20.90;99.90;;;;;;5071493;28;20032;-39
2023/10/11 11:49:48;;;;;;;7.85;2.75;;;20.80;99.90;;;;;;5054307;28;20028;-38
2023/10/11 11:52:16;;;;;;;9.77;2.83;;;20.70;99.90;;;;;;5072331;28;20028;-38
2023/10/11 11:54:47;;;;;;;10.20;3.60;;;20.70;99.90;;;;;;5072299;28;20477;-42
2023/10/11 11:57:12;;;;;;;6.05;2.65;;;20.70;99.90;;;;;;5072378;28;20043;-39
2023/10/11 11:59:40;;;;;;;5.40;2.00;;;20.60;99.90;;;;;;5054032;28;20025;-39
2023/10/11 12:02:16;;;;;;;11.13;3.17;;;20.60;99.90;;;;;;5074720;28;20020;-37
2023/10/11 12:04:44;;;;;;;5.72;2.40;;;20.60;99.90;;;;;;5043206;28;20392;-40
2023/10/11 12:07:10;;;;;;;;;;;20.60;99.90;;;;;;5076439;28;20016;-38
2023/10/11 12:09:38;;;;;;;4.57;1.27;;;20.70;99.90;;;;;;5076213;28;19916;-38
2023/10/11 12:12:05;;;;;;;6.80;3.00;;;20.70;99.90;;;;;;5076196;28;20024;-39
2023/10/11 12:14:31;;;;;;;;;;;20.70;99.90;;;;;;5076383;28;20043;-43
2023/10/11 12:16:58;;;;;;;7.05;3.05;;;20.70;99.90;;;;;;5075729;28;20441;-37
2023/10/11 12:19:24;;;;;;;9.73;3.20;;;20.80;99.90;;;;;;5075992;28;20412;-37
2023/10/11 12:21:56;;;;;;;9.60;3.15;;;20.70;99.90;;;;;;5076568;28;20286;-39
2023/10/11 12:24:25;;;;;;;10.75;3.17;;;20.70;99.90;;;;;;5076356;28;20032;-55
2023/10/11 12:26:53;;;;;;;12.50;4.07;;;20.70;99.90;;;;;;5057637;28;20013;-39
2023/10/11 12:29:21;;;;;;;11.95;3.90;;;20.70;99.90;;;;;;5076231;28;20025;-40
2023/10/11 12:31:47;;;;;;;11.60;4.22;;;20.70;99.90;;;;;;5075774;28;20025;-40
2023/10/11 12:34:13;;;;;;;9.88;3.63;;;20.70;99.90;;;;;;5075517;28;20045;-38
2023/10/11 12:36:41;;;;;;;14.25;3.97;;;20.60;99.90;;;;;;5076358;28;20020;-39
2023/10/11 12:39:08;;;;;;;18.50;4.55;;;20.60;99.90;;;;;;5075353;28;20016;-39
2023/10/11 12:41:39;;;;;;;15.05;4.53;;;20.60;99.90;;;;;;5075449;28;20111;-37
2023/10/11 12:44:07;;;;;;;10.07;4.20;;;20.60;99.90;;;;;;5075502;28;20411;-39
2023/10/11 12:46:34;;;;;;;15.63;4.47;;;20.60;99.90;;;;;;5075782;28;20025;-38
2023/10/11 12:49:00;;;;;;;10.55;3.90;;;20.60;99.90;;;;;;5075299;28;20028;-38
2023/10/11 12:51:27;;;;;;;7.85;4.07;;;20.60;99.90;;;;;;5075593;28;20430;-38
2023/10/11 12:53:56;;;;;;;10.73;4.05;;;20.50;99.90;;;;;;5065130;28;20020;-38
2023/10/11 12:56:23;;;;;;;13.35;5.25;;;20.50;99.90;;;;;;5075610;28;20020;-49
2023/10/11 12:58:51;;;;;;;12.70;3.80;;;20.50;99.90;;;;;;5075596;28;20029;-39
2023/10/11 13:01:25;;;;;;;16.10;4.68;;;20.40;99.90;;;;;;5075370;28;20024;-40
2023/10/11 13:04:05;;;;;;;13.07;4.05;;;20.40;99.90;;;;;;5049482;28;20036;-38
2023/10/11 13:06:36;;;;;;;16.52;4.38;;;20.40;99.90;;;;;;5057350;28;20507;-70
2023/10/11 13:09:04;;;;;;;16.33;4.85;;;20.50;99.90;;;;;;5070175;28;20021;-38
2023/10/11 13:11:31;;;;;;;14.50;4.65;;;20.50;99.90;;;;;;5068125;28;20644;-41
2023/10/11 13:14:05;;;;;;;18.45;5.00;;;20.50;99.90;;;;;;5073521;28;20059;-40
2023/10/11 13:16:32;;;;;;;17.13;6.03;;;20.50;99.90;;;;;;5056623;28;20016;-37
2023/10/11 13:18:59;;;;;;;15.40;5.07;;;20.50;99.90;;;;;;5073792;28;20059;-38
2023/10/11 13:21:28;;;;;;;13.40;5.43;;;20.50;99.90;;;;;;5075009;28;20067;-36
2023/10/11 13:23:54;;;;;;;19.38;6.60;;;20.50;99.90;;;;;;5072529;28;20051;-38
2023/10/11 13:26:20;;;;;;;15.10;5.75;;;20.50;99.90;;;;;;5073847;28;20428;-38
2023/10/11 13:28:53;;;;;;;17.15;6.85;;;20.50;99.90;;;;;;5075080;28;20473;-37
2023/10/11 13:31:18;;;;;;;19.70;5.40;;;20.50;99.90;;;;;;5067922;28;20025;-37
2023/10/11 13:33:44;;;;;;;9.05;5.28;;;20.50;99.90;;;;;;5064991;28;20493;-45
2023/10/11 13:36:12;;;;;;;15.02;5.57;;;20.50;99.90;;;;;;5056108;28;20052;-39
2023/10/11 13:38:41;;;;;;;17.23;5.75;;;20.50;99.90;;;;;;5062661;28;20068;-39
2023/10/11 13:41:12;;;;;;;12.75;6.18;;;20.50;99.90;;;;;;5065074;28;20065;-37
2023/10/11 13:43:38;;;;;;;22.88;7.18;;;20.60;99.90;;;;;;5072619;28;20035;-38
2023/10/11 13:46:06;;;;;;;18.05;7.47;;;20.60;99.90;;;;;;5073927;28;20032;-38
2023/10/11 13:48:40;;;;;;;14.73;7.35;;;20.60;99.90;;;;;;5050451;28;20033;-39